createdAt,value
2017-05-20T00:00:24.981Z,16.76
2017-05-20T00:00:53.430Z,16.84
2017-05-20T00:01:21.829Z,16.74
2017-05-20T00:01:50.202Z,16.77
2017-05-20T00:02:18.599Z,16.74
2017-05-20T00:02:46.965Z,16.88
2017-05-20T00:03:58.236Z,16.84
2017-05-20T00:04:26.522Z,16.88
2017-05-20T00:04:54.879Z,16.82
2017-05-20T00:05:23.179Z,16.84
2017-05-20T00:05:51.496Z,16.79
2017-05-20T00:06:19.934Z,16.83
2017-05-20T00:06:48.346Z,16.84
2017-05-20T00:07:16.741Z,16.87
2017-05-20T00:07:45.153Z,16.88
2017-05-20T00:08:13.368Z,16.87
2017-05-20T00:08:41.719Z,16.9
2017-05-20T00:09:53.090Z,16.8
2017-05-20T00:10:21.280Z,16.87
2017-05-20T00:10:49.733Z,16.91
2017-05-20T00:11:18.031Z,16.9
2017-05-20T00:11:46.425Z,16.84
2017-05-20T00:12:14.873Z,16.91
2017-05-20T00:12:43.357Z,16.87
2017-05-20T00:13:11.703Z,16.84
2017-05-20T00:13:40.085Z,16.84
2017-05-20T00:14:08.422Z,16.74
2017-05-20T00:14:36.731Z,16.77
2017-05-20T00:15:48.127Z,16.79
2017-05-20T00:16:16.367Z,16.74
2017-05-20T00:16:44.800Z,16.76
2017-05-20T00:17:13.110Z,16.76
2017-05-20T00:17:41.518Z,16.79
2017-05-20T00:18:09.963Z,16.79
2017-05-20T00:18:38.308Z,16.84
2017-05-20T00:19:06.429Z,16.91
2017-05-20T00:19:34.815Z,16.91
2017-05-20T00:20:03.087Z,16.87
2017-05-20T00:20:31.436Z,16.91
2017-05-20T00:21:42.807Z,16.84
2017-05-20T00:22:11.201Z,16.74
2017-05-20T00:22:39.635Z,16.8
2017-05-20T00:23:08.054Z,16.77
2017-05-20T00:23:36.364Z,16.83
2017-05-20T00:24:04.662Z,16.82
2017-05-20T00:24:33.163Z,16.76
2017-05-20T00:25:01.505Z,16.74
2017-05-20T00:25:29.887Z,16.84
2017-05-20T00:25:58.181Z,16.79
2017-05-20T00:26:26.554Z,16.77
2017-05-20T00:27:38.004Z,16.83
2017-05-20T00:28:06.296Z,16.82
2017-05-20T00:28:34.637Z,16.9
2017-05-20T00:29:03.011Z,16.87
2017-05-20T00:29:31.273Z,16.9
2017-05-20T00:29:59.588Z,16.88
2017-05-20T00:30:27.978Z,16.91
2017-05-20T00:30:56.332Z,16.88
2017-05-20T00:31:24.732Z,16.92
2017-05-20T00:31:53.019Z,16.92
2017-05-20T00:32:21.380Z,16.87
2017-05-20T00:33:32.834Z,16.84
2017-05-20T00:34:01.245Z,16.91
2017-05-20T00:34:29.628Z,16.9
2017-05-20T00:34:58.027Z,16.83
2017-05-20T00:35:26.457Z,16.9
2017-05-20T00:35:54.941Z,16.84
2017-05-20T00:36:23.379Z,16.91
2017-05-20T00:36:51.527Z,16.87
2017-05-20T00:37:19.943Z,16.87
2017-05-20T00:37:48.244Z,16.87
2017-05-20T00:38:16.630Z,16.8
2017-05-20T00:39:27.906Z,16.87
2017-05-20T00:39:56.285Z,16.87
2017-05-20T00:40:24.558Z,16.76
2017-05-20T00:40:52.859Z,16.84
2017-05-20T00:41:21.290Z,16.9
2017-05-20T00:41:49.608Z,16.73
2017-05-20T00:42:18.119Z,16.79
2017-05-20T00:42:46.573Z,16.9
2017-05-20T00:43:14.882Z,16.88
2017-05-20T00:43:43.300Z,16.84
2017-05-20T00:44:11.532Z,16.76
2017-05-20T00:45:22.926Z,16.87
2017-05-20T00:45:51.257Z,16.82
2017-05-20T00:46:19.518Z,16.91
2017-05-20T00:46:47.833Z,16.88
2017-05-20T00:47:16.110Z,16.82
2017-05-20T00:47:44.358Z,16.83
2017-05-20T00:48:12.874Z,16.83
2017-05-20T00:48:41.240Z,16.8
2017-05-20T00:49:09.482Z,16.76
2017-05-20T00:49:37.750Z,16.76
2017-05-20T00:50:05.984Z,16.8
2017-05-20T00:51:17.446Z,16.76
2017-05-20T00:51:45.677Z,16.74
2017-05-20T00:52:13.941Z,16.82
2017-05-20T00:52:42.382Z,16.84
2017-05-20T00:53:10.668Z,16.76
2017-05-20T00:53:39.094Z,16.79
2017-05-20T00:54:07.337Z,16.76
2017-05-20T00:54:35.707Z,16.74
2017-05-20T00:55:03.879Z,16.77
2017-05-20T00:55:32.161Z,16.79
2017-05-20T00:56:00.470Z,16.77
2017-05-20T00:57:11.816Z,16.74
2017-05-20T00:57:40.103Z,16.79
2017-05-20T00:58:08.502Z,16.79
2017-05-20T00:58:36.753Z,16.83
2017-05-20T00:59:05.135Z,16.83
2017-05-20T00:59:33.525Z,16.7
2017-05-20T01:00:01.904Z,16.73
2017-05-20T01:00:30.264Z,16.76
2017-05-20T01:00:58.691Z,16.73
2017-05-20T01:01:26.952Z,16.65
2017-05-20T01:01:55.218Z,16.72
2017-05-20T01:03:06.622Z,16.72
2017-05-20T01:03:34.813Z,16.65
2017-05-20T01:04:03.174Z,16.74
2017-05-20T01:04:31.515Z,16.74
2017-05-20T01:04:59.914Z,16.74
2017-05-20T01:05:28.267Z,16.72
2017-05-20T01:05:56.477Z,16.76
2017-05-20T01:06:24.729Z,16.77
2017-05-20T01:06:53.149Z,16.72
2017-05-20T01:07:21.487Z,16.77
2017-05-20T01:07:49.751Z,16.73
2017-05-20T01:09:01.058Z,16.82
2017-05-20T01:09:29.372Z,16.8
2017-05-20T01:09:57.809Z,16.76
2017-05-20T01:10:26.210Z,16.76
2017-05-20T01:10:54.666Z,16.76
2017-05-20T01:11:23.023Z,16.74
2017-05-20T01:11:51.428Z,16.72
2017-05-20T01:12:19.791Z,16.76
2017-05-20T01:12:48.158Z,16.76
2017-05-20T01:13:16.417Z,16.84
2017-05-20T01:13:44.766Z,16.74
2017-05-20T01:14:56.211Z,16.76
2017-05-20T01:15:24.577Z,16.79
2017-05-20T01:15:52.812Z,16.74
2017-05-20T01:16:21.198Z,16.76
2017-05-20T01:16:49.535Z,16.72
2017-05-20T01:17:17.835Z,16.73
2017-05-20T01:17:46.123Z,16.7
2017-05-20T01:18:14.542Z,16.69
2017-05-20T01:18:42.871Z,16.72
2017-05-20T01:19:11.277Z,16.7
2017-05-20T01:19:39.543Z,16.7
2017-05-20T01:20:50.942Z,16.76
2017-05-20T01:21:19.232Z,16.67
2017-05-20T01:21:47.544Z,16.74
2017-05-20T01:22:15.946Z,16.72
2017-05-20T01:22:44.339Z,16.72
2017-05-20T01:23:12.665Z,16.65
2017-05-20T01:23:41.072Z,16.65
2017-05-20T01:24:09.225Z,16.69
2017-05-20T01:24:37.501Z,16.67
2017-05-20T01:25:05.981Z,16.7
2017-05-20T01:25:34.330Z,16.72
2017-05-20T01:26:45.727Z,16.67
2017-05-20T01:27:13.786Z,16.62
2017-05-20T01:27:42.178Z,16.65
2017-05-20T01:28:10.621Z,16.64
2017-05-20T01:28:38.897Z,16.69
2017-05-20T01:29:07.252Z,16.69
2017-05-20T01:29:35.548Z,16.61
2017-05-20T01:30:03.971Z,16.64
2017-05-20T01:30:32.290Z,16.62
2017-05-20T01:31:00.562Z,16.7
2017-05-20T01:31:28.719Z,16.61
2017-05-20T01:32:40.088Z,16.69
2017-05-20T01:33:08.355Z,16.64
2017-05-20T01:33:36.794Z,16.64
2017-05-20T01:34:05.185Z,16.64
2017-05-20T01:34:33.473Z,16.69
2017-05-20T01:35:01.970Z,16.69
2017-05-20T01:35:30.411Z,16.69
2017-05-20T01:35:58.847Z,16.67
2017-05-20T01:36:27.396Z,16.74
2017-05-20T01:36:55.700Z,16.65
2017-05-20T01:37:24.088Z,16.69
2017-05-20T01:38:35.491Z,16.7
2017-05-20T01:39:03.749Z,16.65
2017-05-20T01:39:32.298Z,16.61
2017-05-20T01:40:00.653Z,16.65
2017-05-20T01:40:28.940Z,16.64
2017-05-20T01:40:57.348Z,16.65
2017-05-20T01:41:25.870Z,16.64
2017-05-20T01:41:54.279Z,16.64
2017-05-20T01:42:22.681Z,16.69
2017-05-20T01:42:51.070Z,16.67
2017-05-20T01:43:19.282Z,16.67
2017-05-20T01:44:30.669Z,16.65
2017-05-20T01:44:58.990Z,16.69
2017-05-20T01:45:27.394Z,16.65
2017-05-20T01:45:55.773Z,16.65
2017-05-20T01:46:24.042Z,16.65
2017-05-20T01:46:52.495Z,16.67
2017-05-20T01:47:21.007Z,16.67
2017-05-20T01:47:49.140Z,16.69
2017-05-20T01:48:17.423Z,16.7
2017-05-20T01:48:45.841Z,16.65
2017-05-20T01:49:14.113Z,16.67
2017-05-20T01:50:25.623Z,16.61
2017-05-20T01:50:53.928Z,16.59
2017-05-20T01:51:22.405Z,16.67
2017-05-20T01:51:50.689Z,16.67
2017-05-20T01:52:19.005Z,16.64
2017-05-20T01:52:47.488Z,16.59
2017-05-20T01:53:15.985Z,16.62
2017-05-20T01:53:44.391Z,16.67
2017-05-20T01:54:12.792Z,16.64
2017-05-20T01:54:41.176Z,16.65
2017-05-20T01:55:09.412Z,16.65
2017-05-20T01:56:20.724Z,16.69
2017-05-20T01:56:49.006Z,16.69
2017-05-20T01:57:17.514Z,16.69
2017-05-20T01:57:45.906Z,16.69
2017-05-20T01:58:14.152Z,16.7
2017-05-20T01:58:42.406Z,16.7
2017-05-20T01:59:10.809Z,16.67
2017-05-20T01:59:39.109Z,16.73
2017-05-20T02:00:07.468Z,16.64
2017-05-20T02:00:35.728Z,16.64
2017-05-20T02:01:04.127Z,16.65
2017-05-20T02:02:15.560Z,16.69
2017-05-20T02:02:43.701Z,16.64
2017-05-20T02:03:12.045Z,16.7
2017-05-20T02:03:40.387Z,16.67
2017-05-20T02:04:08.668Z,16.62
2017-05-20T02:04:37.072Z,16.7
2017-05-20T02:05:05.455Z,16.7
2017-05-20T02:05:33.905Z,16.62
2017-05-20T02:06:02.257Z,16.69
2017-05-20T02:06:30.518Z,16.61
2017-05-20T02:06:58.897Z,16.61
2017-05-20T02:08:10.298Z,16.55
2017-05-20T02:08:38.588Z,16.69
2017-05-20T02:09:06.935Z,16.62
2017-05-20T02:09:35.083Z,16.65
2017-05-20T02:10:03.472Z,16.62
2017-05-20T02:10:31.916Z,16.62
2017-05-20T02:11:00.299Z,16.59
2017-05-20T02:11:28.599Z,16.67
2017-05-20T02:11:56.842Z,16.61
2017-05-20T02:12:25.115Z,16.7
2017-05-20T02:12:53.341Z,16.64
2017-05-20T02:14:04.737Z,16.54
2017-05-20T02:14:33.014Z,16.58
2017-05-20T02:15:01.447Z,16.54
2017-05-20T02:15:29.838Z,16.51
2017-05-20T02:15:58.169Z,16.46
2017-05-20T02:16:26.557Z,16.64
2017-05-20T02:16:54.799Z,16.51
2017-05-20T02:17:23.097Z,16.51
2017-05-20T02:17:51.511Z,16.52
2017-05-20T02:18:19.785Z,16.55
2017-05-20T02:18:48.145Z,16.58
2017-05-20T02:19:59.544Z,16.49
2017-05-20T02:20:27.879Z,16.59
2017-05-20T02:20:56.283Z,16.49
2017-05-20T02:21:24.657Z,16.54
2017-05-20T02:21:52.834Z,16.58
2017-05-20T02:22:21.285Z,16.52
2017-05-20T02:22:49.742Z,16.61
2017-05-20T02:23:18.059Z,16.65
2017-05-20T02:23:46.487Z,16.55
2017-05-20T02:24:14.734Z,16.59
2017-05-20T02:24:43.102Z,16.59
2017-05-20T02:25:54.429Z,16.62
2017-05-20T02:26:22.765Z,16.64
2017-05-20T02:26:51.177Z,16.61
2017-05-20T02:27:19.514Z,16.69
2017-05-20T02:27:47.712Z,16.62
2017-05-20T02:28:16.116Z,16.65
2017-05-20T02:28:44.496Z,16.64
2017-05-20T02:29:12.678Z,16.67
2017-05-20T02:29:41.045Z,16.69
2017-05-20T02:30:09.301Z,16.64
2017-05-20T02:30:37.419Z,16.73
2017-05-20T02:31:48.724Z,16.65
2017-05-20T02:32:17.045Z,16.69
2017-05-20T02:32:45.463Z,16.72
2017-05-20T02:33:13.813Z,16.62
2017-05-20T02:33:41.912Z,16.69
2017-05-20T02:34:10.247Z,16.72
2017-05-20T02:34:38.488Z,16.65
2017-05-20T02:35:06.663Z,16.64
2017-05-20T02:35:35.016Z,16.7
2017-05-20T02:36:03.258Z,16.72
2017-05-20T02:36:31.477Z,16.69
2017-05-20T02:37:42.880Z,16.64
2017-05-20T02:38:11.117Z,16.72
2017-05-20T02:38:39.435Z,16.65
2017-05-20T02:39:07.675Z,16.65
2017-05-20T02:39:35.937Z,16.69
2017-05-20T02:40:04.248Z,16.65
2017-05-20T02:40:32.595Z,16.72
2017-05-20T02:41:00.849Z,16.69
2017-05-20T02:41:29.202Z,16.64
2017-05-20T02:41:57.354Z,16.67
2017-05-20T02:42:25.485Z,16.72
2017-05-20T02:43:36.884Z,16.76
2017-05-20T02:44:05.132Z,16.74
2017-05-20T02:44:33.367Z,16.72
2017-05-20T02:45:01.638Z,16.67
2017-05-20T02:45:29.911Z,16.69
2017-05-20T02:45:58.229Z,16.69
2017-05-20T02:46:26.604Z,16.69
2017-05-20T02:46:54.870Z,16.69
2017-05-20T02:47:23.268Z,16.69
2017-05-20T02:47:51.549Z,16.69
2017-05-20T02:48:19.982Z,16.7
2017-05-20T02:49:31.386Z,16.73
2017-05-20T02:49:59.759Z,16.73
2017-05-20T02:50:27.986Z,16.7
2017-05-20T02:50:56.357Z,16.83
2017-05-20T02:51:24.644Z,16.7
2017-05-20T02:51:53.101Z,16.79
2017-05-20T02:52:21.532Z,16.73
2017-05-20T02:52:49.958Z,16.77
2017-05-20T02:53:18.301Z,16.82
2017-05-20T02:53:46.674Z,16.73
2017-05-20T02:54:14.905Z,16.74
2017-05-20T02:55:26.117Z,16.79
2017-05-20T02:55:54.358Z,16.83
2017-05-20T02:56:22.780Z,16.82
2017-05-20T02:56:51.133Z,16.72
2017-05-20T02:57:19.422Z,16.76
2017-05-20T02:57:47.738Z,16.73
2017-05-20T02:58:16.031Z,16.77
2017-05-20T02:58:44.325Z,16.77
2017-05-20T02:59:12.626Z,16.83
2017-05-20T02:59:41.037Z,16.79
2017-05-20T03:00:09.266Z,16.82
2017-05-20T03:01:20.489Z,16.83
2017-05-20T03:01:48.820Z,16.77
2017-05-20T03:02:17.260Z,16.74
2017-05-20T03:02:45.537Z,16.74
2017-05-20T03:03:13.805Z,16.87
2017-05-20T03:03:42.249Z,16.87
2017-05-20T03:04:10.749Z,16.82
2017-05-20T03:04:39.072Z,16.79
2017-05-20T03:05:07.435Z,16.74
2017-05-20T03:05:35.796Z,16.84
2017-05-20T03:06:04.026Z,16.88
2017-05-20T03:07:15.331Z,16.83
2017-05-20T03:07:43.619Z,16.91
2017-05-20T03:08:12.040Z,16.94
2017-05-20T03:08:40.303Z,16.83
2017-05-20T03:09:08.476Z,16.82
2017-05-20T03:09:36.787Z,16.88
2017-05-20T03:10:05.216Z,16.87
2017-05-20T03:10:33.486Z,16.87
2017-05-20T03:11:01.833Z,16.84
2017-05-20T03:11:29.983Z,16.87
2017-05-20T03:11:58.210Z,16.91
2017-05-20T03:13:09.513Z,16.83
2017-05-20T03:13:37.746Z,16.87
2017-05-20T03:14:06.166Z,16.91
2017-05-20T03:14:34.423Z,16.84
2017-05-20T03:15:02.524Z,16.91
2017-05-20T03:15:30.892Z,16.91
2017-05-20T03:15:59.390Z,16.91
2017-05-20T03:16:27.753Z,16.91
2017-05-20T03:16:56.110Z,16.9
2017-05-20T03:17:24.358Z,16.91
2017-05-20T03:17:52.662Z,16.92
2017-05-20T03:19:03.971Z,16.97
2017-05-20T03:19:32.125Z,16.98
2017-05-20T03:20:00.455Z,16.91
2017-05-20T03:20:28.791Z,16.94
2017-05-20T03:20:57.148Z,16.94
2017-05-20T03:21:25.564Z,16.97
2017-05-20T03:21:53.974Z,16.92
2017-05-20T03:22:22.344Z,16.9
2017-05-20T03:22:50.730Z,16.97
2017-05-20T03:23:19.005Z,16.98
2017-05-20T03:23:47.159Z,16.97
2017-05-20T03:24:58.560Z,16.87
2017-05-20T03:25:26.881Z,16.97
2017-05-20T03:25:55.189Z,16.9
2017-05-20T03:26:23.532Z,16.9
2017-05-20T03:26:51.795Z,16.99
2017-05-20T03:27:20.096Z,16.97
2017-05-20T03:27:48.393Z,16.95
2017-05-20T03:28:16.572Z,16.95
2017-05-20T03:28:44.813Z,16.99
2017-05-20T03:29:13.062Z,16.9
2017-05-20T03:29:41.278Z,16.87
2017-05-20T03:30:52.585Z,16.88
2017-05-20T03:31:20.901Z,16.99
2017-05-20T03:31:49.280Z,16.95
2017-05-20T03:32:17.527Z,16.92
2017-05-20T03:32:45.698Z,16.95
2017-05-20T03:33:14.005Z,16.98
2017-05-20T03:33:42.303Z,16.95
2017-05-20T03:34:10.674Z,16.95
2017-05-20T03:34:38.921Z,16.98
2017-05-20T03:35:07.156Z,16.94
2017-05-20T03:35:35.276Z,16.95
2017-05-20T03:36:46.580Z,16.95
2017-05-20T03:37:14.899Z,16.95
2017-05-20T03:37:43.292Z,16.97
2017-05-20T03:38:11.627Z,16.91
2017-05-20T03:38:39.990Z,16.91
2017-05-20T03:39:08.380Z,16.95
2017-05-20T03:39:36.689Z,16.92
2017-05-20T03:40:05.030Z,16.95
2017-05-20T03:40:33.283Z,16.94
2017-05-20T03:41:01.426Z,16.95
2017-05-20T03:41:29.729Z,16.95
2017-05-20T03:42:41.037Z,16.99
2017-05-20T03:43:09.353Z,16.9
2017-05-20T03:43:37.729Z,16.97
2017-05-20T03:44:05.977Z,16.92
2017-05-20T03:44:34.331Z,16.88
2017-05-20T03:45:02.723Z,16.95
2017-05-20T03:45:31.097Z,16.95
2017-05-20T03:45:59.355Z,16.88
2017-05-20T03:46:27.678Z,16.95
2017-05-20T03:46:55.821Z,16.87
2017-05-20T03:47:24.123Z,16.92
2017-05-20T03:48:35.430Z,16.98
2017-05-20T03:49:03.566Z,16.94
2017-05-20T03:49:31.861Z,16.9
2017-05-20T03:50:00.102Z,16.94
2017-05-20T03:50:28.454Z,16.9
2017-05-20T03:50:56.750Z,16.98
2017-05-20T03:51:25.022Z,16.91
2017-05-20T03:51:53.282Z,16.94
2017-05-20T03:52:21.612Z,16.9
2017-05-20T03:52:49.935Z,16.91
2017-05-20T03:53:18.048Z,16.95
2017-05-20T03:54:29.447Z,16.84
2017-05-20T03:54:57.771Z,16.84
2017-05-20T03:55:26.162Z,16.91
2017-05-20T03:55:54.399Z,16.97
2017-05-20T03:56:22.754Z,16.97
2017-05-20T03:56:51.049Z,16.91
2017-05-20T03:57:19.418Z,16.95
2017-05-20T03:57:47.767Z,16.91
2017-05-20T03:58:15.999Z,16.84
2017-05-20T03:58:44.144Z,16.84
2017-05-20T03:59:12.353Z,16.92
2017-05-20T04:00:23.749Z,16.99
2017-05-20T04:00:51.884Z,16.87
2017-05-20T04:01:20.272Z,16.97
2017-05-20T04:01:48.517Z,16.98
2017-05-20T04:02:16.688Z,16.98
2017-05-20T04:02:45.076Z,16.95
2017-05-20T04:03:13.352Z,16.99
2017-05-20T04:03:41.691Z,16.97
2017-05-20T04:04:10.021Z,16.84
2017-05-20T04:04:38.162Z,16.98
2017-05-20T04:05:06.468Z,16.99
2017-05-20T04:06:17.870Z,16.92
2017-05-20T04:06:46.189Z,16.84
2017-05-20T04:07:14.573Z,16.88
2017-05-20T04:07:42.917Z,16.88
2017-05-20T04:08:11.271Z,16.95
2017-05-20T04:08:39.563Z,16.91
2017-05-20T04:09:07.746Z,16.95
2017-05-20T04:09:35.999Z,16.91
2017-05-20T04:10:04.327Z,16.91
2017-05-20T04:10:32.572Z,16.92
2017-05-20T04:11:00.871Z,16.88
2017-05-20T04:12:12.180Z,16.95
2017-05-20T04:12:40.405Z,16.88
2017-05-20T04:13:08.787Z,16.91
2017-05-20T04:13:37.034Z,16.97
2017-05-20T04:14:05.383Z,16.87
2017-05-20T04:14:33.678Z,16.87
2017-05-20T04:15:02.052Z,16.92
2017-05-20T04:15:30.302Z,16.97
2017-05-20T04:15:58.631Z,16.95
2017-05-20T04:16:26.803Z,16.9
2017-05-20T04:16:55.112Z,16.99
2017-05-20T04:18:06.421Z,16.98
2017-05-20T04:18:34.737Z,16.97
2017-05-20T04:19:03.112Z,16.95
2017-05-20T04:19:31.353Z,16.94
2017-05-20T04:19:59.615Z,16.91
2017-05-20T04:20:28.006Z,16.88
2017-05-20T04:20:56.377Z,16.9
2017-05-20T04:21:24.634Z,16.92
2017-05-20T04:21:52.873Z,16.94
2017-05-20T04:22:21.020Z,16.91
2017-05-20T04:22:49.318Z,16.87
2017-05-20T04:24:00.627Z,16.92
2017-05-20T04:24:28.849Z,16.88
2017-05-20T04:24:57.232Z,16.91
2017-05-20T04:25:25.567Z,16.9
2017-05-20T04:25:53.733Z,16.91
2017-05-20T04:26:22.026Z,16.91
2017-05-20T04:26:50.303Z,16.91
2017-05-20T04:27:18.644Z,16.9
2017-05-20T04:27:46.975Z,16.83
2017-05-20T04:28:14.935Z,16.9
2017-05-20T04:28:43.054Z,16.88
2017-05-20T04:29:54.363Z,16.9
2017-05-20T04:30:22.586Z,16.87
2017-05-20T04:30:50.972Z,16.87
2017-05-20T04:31:19.306Z,16.83
2017-05-20T04:31:47.562Z,16.91
2017-05-20T04:32:15.951Z,16.87
2017-05-20T04:32:44.235Z,16.91
2017-05-20T04:33:12.488Z,16.88
2017-05-20T04:33:40.724Z,16.91
2017-05-20T04:34:08.870Z,16.87
2017-05-20T04:34:37.079Z,16.9
2017-05-20T04:35:48.205Z,16.9
2017-05-20T04:36:16.335Z,16.79
2017-05-20T04:36:44.630Z,16.73
2017-05-20T04:37:12.960Z,16.88
2017-05-20T04:37:41.315Z,16.87
2017-05-20T04:38:09.703Z,16.84
2017-05-20T04:38:38.081Z,16.76
2017-05-20T04:39:06.331Z,16.82
2017-05-20T04:39:34.661Z,16.76
2017-05-20T04:40:02.991Z,16.9
2017-05-20T04:40:31.105Z,16.92
2017-05-20T04:41:42.412Z,16.88
2017-05-20T04:42:10.726Z,16.9
2017-05-20T04:42:39.016Z,16.83
2017-05-20T04:43:07.257Z,16.87
2017-05-20T04:43:35.608Z,16.84
2017-05-20T04:44:03.995Z,16.8
2017-05-20T04:44:32.368Z,16.88
2017-05-20T04:45:00.710Z,16.82
2017-05-20T04:45:29.038Z,16.87
2017-05-20T04:45:57.179Z,16.9
2017-05-20T04:46:25.479Z,16.87
2017-05-20T04:47:36.695Z,16.91
2017-05-20T04:48:05.009Z,16.9
2017-05-20T04:48:33.385Z,16.87
2017-05-20T04:49:01.538Z,16.84
2017-05-20T04:49:29.798Z,16.84
2017-05-20T04:49:58.092Z,16.84
2017-05-20T04:50:26.434Z,16.88
2017-05-20T04:50:54.716Z,16.84
2017-05-20T04:51:23.037Z,16.91
2017-05-20T04:51:51.081Z,16.92
2017-05-20T04:52:19.378Z,16.87
2017-05-20T04:53:30.793Z,16.87
2017-05-20T04:53:59.109Z,16.83
2017-05-20T04:54:27.398Z,16.83
2017-05-20T04:54:55.640Z,16.88
2017-05-20T04:55:23.996Z,16.84
2017-05-20T04:55:52.383Z,16.83
2017-05-20T04:56:20.756Z,16.84
2017-05-20T04:56:49.006Z,16.87
2017-05-20T04:57:17.341Z,16.9
2017-05-20T04:57:45.580Z,16.87
2017-05-20T04:58:13.697Z,16.84
2017-05-20T04:59:25.023Z,16.8
2017-05-20T04:59:53.331Z,16.8
2017-05-20T05:00:21.533Z,16.8
2017-05-20T05:00:49.840Z,16.83
2017-05-20T05:01:18.101Z,16.8
2017-05-20T05:01:46.483Z,16.83
2017-05-20T05:02:14.762Z,16.87
2017-05-20T05:02:43.012Z,16.82
2017-05-20T05:03:11.346Z,16.87
2017-05-20T05:03:39.583Z,16.82
2017-05-20T05:04:07.697Z,16.87
2017-05-20T05:05:19.098Z,16.8
2017-05-20T05:05:47.321Z,16.9
2017-05-20T05:06:15.704Z,16.87
2017-05-20T05:06:44.039Z,16.87
2017-05-20T05:07:12.300Z,16.84
2017-05-20T05:07:40.686Z,16.87
2017-05-20T05:08:08.967Z,16.88
2017-05-20T05:08:37.317Z,16.9
2017-05-20T05:09:05.646Z,16.9
2017-05-20T05:09:33.974Z,16.84
2017-05-20T05:10:02.091Z,16.88
2017-05-20T05:11:13.485Z,16.91
2017-05-20T05:11:41.804Z,16.87
2017-05-20T05:12:10.199Z,16.87
2017-05-20T05:12:38.442Z,16.91
2017-05-20T05:13:06.706Z,16.87
2017-05-20T05:13:35.085Z,16.92
2017-05-20T05:14:03.454Z,16.8
2017-05-20T05:14:31.709Z,16.88
2017-05-20T05:15:00.040Z,16.9
2017-05-20T05:15:28.373Z,16.88
2017-05-20T05:15:56.669Z,16.87
2017-05-20T05:17:08.073Z,16.9
2017-05-20T05:17:36.396Z,16.87
2017-05-20T05:18:04.696Z,16.84
2017-05-20T05:18:32.944Z,16.83
2017-05-20T05:19:01.301Z,16.77
2017-05-20T05:19:29.506Z,16.84
2017-05-20T05:19:57.876Z,16.76
2017-05-20T05:20:26.222Z,16.74
2017-05-20T05:20:54.550Z,16.72
2017-05-20T05:21:22.787Z,16.79
2017-05-20T05:21:50.995Z,16.72
2017-05-20T05:23:02.303Z,16.74
2017-05-20T05:23:30.625Z,16.8
2017-05-20T05:23:58.928Z,16.83
2017-05-20T05:24:27.170Z,16.8
2017-05-20T05:24:55.434Z,16.87
2017-05-20T05:25:23.722Z,16.74
2017-05-20T05:25:52.099Z,16.74
2017-05-20T05:26:20.355Z,16.82
2017-05-20T05:26:48.684Z,16.72
2017-05-20T05:27:16.925Z,16.82
2017-05-20T05:27:45.047Z,16.76
2017-05-20T05:28:56.447Z,16.74
2017-05-20T05:29:24.767Z,16.82
2017-05-20T05:29:53.160Z,16.82
2017-05-20T05:30:21.401Z,16.79
2017-05-20T05:30:49.759Z,16.8
2017-05-20T05:31:18.050Z,16.88
2017-05-20T05:31:46.419Z,16.79
2017-05-20T05:32:14.670Z,16.8
2017-05-20T05:32:42.909Z,16.79
2017-05-20T05:33:11.242Z,16.8
2017-05-20T05:33:39.450Z,16.82
2017-05-20T05:34:50.578Z,16.74
2017-05-20T05:35:18.900Z,16.74
2017-05-20T05:35:47.291Z,16.82
2017-05-20T05:36:15.549Z,16.74
2017-05-20T05:36:43.905Z,16.77
2017-05-20T05:37:12.289Z,16.8
2017-05-20T05:37:40.567Z,16.77
2017-05-20T05:38:08.910Z,16.79
2017-05-20T05:38:37.146Z,16.76
2017-05-20T05:39:05.520Z,16.77
2017-05-20T05:39:33.735Z,16.84
2017-05-20T05:40:45.034Z,16.74
2017-05-20T05:41:13.354Z,16.76
2017-05-20T05:41:41.739Z,16.77
2017-05-20T05:42:10.076Z,16.8
2017-05-20T05:42:38.443Z,16.79
2017-05-20T05:43:06.813Z,16.74
2017-05-20T05:43:35.174Z,16.8
2017-05-20T05:44:03.531Z,16.79
2017-05-20T05:44:31.880Z,16.8
2017-05-20T05:45:00.206Z,16.74
2017-05-20T05:45:28.428Z,16.77
2017-05-20T05:46:39.812Z,16.83
2017-05-20T05:47:08.046Z,16.77
2017-05-20T05:47:36.334Z,16.74
2017-05-20T05:48:04.583Z,16.8
2017-05-20T05:48:32.943Z,16.77
2017-05-20T05:49:01.229Z,16.77
2017-05-20T05:49:29.514Z,16.8
2017-05-20T05:49:57.860Z,16.83
2017-05-20T05:50:26.004Z,16.83
2017-05-20T05:50:54.242Z,16.79
2017-05-20T05:51:22.452Z,16.72
2017-05-20T05:52:33.668Z,16.74
2017-05-20T05:53:01.993Z,16.79
2017-05-20T05:53:30.297Z,16.8
2017-05-20T05:53:58.448Z,16.79
2017-05-20T05:54:26.713Z,16.77
2017-05-20T05:54:54.914Z,16.73
2017-05-20T05:55:23.190Z,16.8
2017-05-20T05:55:51.437Z,16.76
2017-05-20T05:56:19.769Z,16.74
2017-05-20T05:56:48.102Z,16.8
2017-05-20T05:57:16.405Z,16.74
2017-05-20T05:58:27.615Z,16.74
2017-05-20T05:58:55.937Z,16.82
2017-05-20T05:59:24.137Z,16.83
2017-05-20T05:59:52.382Z,16.79
2017-05-20T06:00:20.731Z,16.79
2017-05-20T06:00:49.030Z,16.83
2017-05-20T06:01:17.218Z,16.76
2017-05-20T06:01:45.380Z,16.74
2017-05-20T06:02:13.706Z,16.82
2017-05-20T06:02:41.947Z,16.82
2017-05-20T06:03:10.067Z,16.84
2017-05-20T06:04:21.189Z,16.74
2017-05-20T06:04:49.325Z,16.8
2017-05-20T06:05:17.713Z,16.82
2017-05-20T06:05:45.959Z,16.79
2017-05-20T06:06:14.213Z,16.76
2017-05-20T06:06:42.411Z,16.79
2017-05-20T06:07:10.778Z,16.79
2017-05-20T06:07:39.034Z,16.82
2017-05-20T06:08:07.274Z,16.79
2017-05-20T06:08:35.605Z,16.73
2017-05-20T06:09:03.906Z,16.79
2017-05-20T06:10:15.029Z,16.76
2017-05-20T06:10:43.355Z,16.73
2017-05-20T06:11:11.750Z,16.87
2017-05-20T06:11:40.087Z,16.77
2017-05-20T06:12:08.446Z,16.76
2017-05-20T06:12:36.556Z,16.77
2017-05-20T06:13:04.742Z,16.74
2017-05-20T06:13:32.995Z,16.76
2017-05-20T06:14:01.326Z,16.8
2017-05-20T06:14:29.488Z,16.83
2017-05-20T06:14:57.694Z,16.76
2017-05-20T06:16:09.096Z,16.76
2017-05-20T06:16:37.326Z,16.77
2017-05-20T06:17:05.715Z,16.8
2017-05-20T06:17:33.962Z,16.83
2017-05-20T06:18:02.228Z,16.76
2017-05-20T06:18:30.522Z,16.82
2017-05-20T06:18:58.892Z,16.77
2017-05-20T06:19:27.144Z,16.8
2017-05-20T06:19:55.384Z,16.84
2017-05-20T06:20:23.718Z,16.82
2017-05-20T06:20:51.829Z,16.8
2017-05-20T06:22:03.132Z,16.83
2017-05-20T06:22:31.455Z,16.77
2017-05-20T06:22:59.750Z,16.73
2017-05-20T06:23:28.097Z,16.8
2017-05-20T06:23:56.359Z,16.74
2017-05-20T06:24:24.749Z,16.77
2017-05-20T06:24:53.017Z,16.79
2017-05-20T06:25:21.271Z,16.82
2017-05-20T06:25:49.412Z,16.77
2017-05-20T06:26:17.745Z,16.8
2017-05-20T06:26:45.951Z,16.77
2017-05-20T06:27:57.348Z,16.82
2017-05-20T06:28:25.577Z,16.74
2017-05-20T06:28:53.959Z,16.79
2017-05-20T06:29:22.303Z,16.84
2017-05-20T06:29:50.658Z,16.79
2017-05-20T06:30:18.950Z,16.83
2017-05-20T06:30:47.226Z,16.76
2017-05-20T06:31:15.382Z,16.76
2017-05-20T06:31:43.624Z,16.88
2017-05-20T06:32:11.868Z,16.84
2017-05-20T06:32:40.072Z,16.74
2017-05-20T06:33:51.376Z,16.87
2017-05-20T06:34:19.512Z,16.72
2017-05-20T06:34:47.716Z,16.74
2017-05-20T06:35:16.049Z,16.9
2017-05-20T06:35:44.306Z,16.76
2017-05-20T06:36:12.595Z,16.84
2017-05-20T06:36:40.968Z,16.74
2017-05-20T06:37:09.224Z,16.76
2017-05-20T06:37:37.550Z,16.84
2017-05-20T06:38:05.784Z,16.73
2017-05-20T06:38:33.994Z,16.72
2017-05-20T06:39:45.296Z,16.76
2017-05-20T06:40:13.435Z,16.8
2017-05-20T06:40:41.725Z,16.72
2017-05-20T06:41:09.963Z,16.87
2017-05-20T06:41:38.318Z,16.87
2017-05-20T06:42:06.611Z,16.76
2017-05-20T06:42:35.432Z,16.73
2017-05-20T06:43:03.688Z,16.82
2017-05-20T06:43:32.018Z,16.74
2017-05-20T06:43:59.982Z,16.84
2017-05-20T06:44:28.282Z,16.84
2017-05-20T06:45:39.590Z,16.73
2017-05-20T06:46:07.907Z,16.88
2017-05-20T06:46:36.284Z,16.87
2017-05-20T06:47:04.619Z,16.83
2017-05-20T06:47:32.879Z,16.83
2017-05-20T06:48:01.265Z,16.84
2017-05-20T06:48:29.355Z,16.82
2017-05-20T06:48:57.606Z,16.83
2017-05-20T06:49:25.753Z,16.83
2017-05-20T06:49:54.080Z,16.88
2017-05-20T06:50:22.282Z,16.88
2017-05-20T06:51:33.495Z,16.82
2017-05-20T06:52:01.811Z,16.77
2017-05-20T06:52:30.188Z,16.76
2017-05-20T06:52:58.521Z,16.76
2017-05-20T06:53:26.781Z,16.74
2017-05-20T06:53:55.171Z,16.8
2017-05-20T06:54:23.381Z,16.79
2017-05-20T06:54:51.628Z,16.77
2017-05-20T06:55:19.959Z,16.88
2017-05-20T06:55:48.103Z,16.9
2017-05-20T06:56:16.312Z,16.8